Time;durP1;ratioP1;P1;durP2;ratioP2;P2;SDS_P1;SDS_P2;PMS_P1;PMS_P2;Temp;Humidity;BMP_temperature;BMP_pressure;BME280_temperature;BME280_humidity;BME280_pressure;Samples;Min_cycle;Max_cycle;Signal;HPM_P1;HPM_P2
2021/07/09 00:02:35;;;;;;;3.80;2.00;;;;;;;19.84;43.76;101708.75;3587528;40;20335;-73
2021/07/09 00:05:06;;;;;;;5.00;2.15;;;;;;;19.86;43.72;101705.78;3588200;40;20477;-73
2021/07/09 00:07:36;;;;;;;2.85;1.75;;;;;;;19.87;43.29;101707.53;3588249;40;20052;-73
2021/07/09 00:10:05;;;;;;;3.63;2.00;;;;;;;19.85;43.88;101709.59;3576828;40;20041;-73
2021/07/09 00:12:34;;;;;;;3.47;1.80;;;;;;;19.84;43.29;101703.19;3587482;40;20039;-73
2021/07/09 00:15:02;;;;;;;4.20;1.80;;;;;;;19.84;43.86;101697.63;3587175;40;20397;-73
2021/07/09 00:17:31;;;;;;;3.70;1.98;;;;;;;19.85;43.98;101698.50;3587211;40;20060;-73
2021/07/09 00:20:00;;;;;;;3.05;1.77;;;;;;;19.84;43.49;101699.56;3586899;40;20177;-73
2021/07/09 00:22:29;;;;;;;3.38;1.70;;;;;;;19.83;43.47;101698.69;3578930;40;20054;-73
2021/07/09 00:24:59;;;;;;;3.45;1.80;;;;;;;19.85;43.77;101710.47;3587046;40;20040;-74
2021/07/09 00:27:27;;;;;;;4.78;2.13;;;;;;;19.83;43.42;101707.03;3587444;40;20048;-73
2021/07/09 00:29:55;;;;;;;3.25;1.92;;;;;;;19.83;43.70;101715.34;3578410;40;20427;-73
2021/07/09 00:32:23;;;;;;;5.07;1.95;;;;;;;19.83;43.61;101712.59;3578477;40;20028;-73
2021/07/09 00:34:52;;;;;;;3.35;2.00;;;;;;;19.83;44.14;101718.13;3584902;40;20060;-73
2021/07/09 00:37:20;;;;;;;4.38;2.38;;;;;;;19.82;44.09;101716.41;3586553;40;20068;-73
2021/07/09 00:39:48;;;;;;;4.75;1.95;;;;;;;19.81;43.64;101714.66;3588406;40;20064;-73
2021/07/09 00:42:18;;;;;;;5.40;2.30;;;;;;;19.82;43.91;101715.53;3587289;40;20045;-73
2021/07/09 00:44:46;;;;;;;3.33;2.05;;;;;;;19.78;43.80;101717.78;3588027;40;20056;-73
2021/07/09 00:47:14;;;;;;;4.15;2.20;;;;;;;19.76;43.82;101721.78;3574608;40;20043;-73
2021/07/09 00:49:43;;;;;;;2.83;1.83;;;;;;;19.72;43.84;101710.13;3587813;40;20381;-73
2021/07/09 00:52:11;;;;;;;5.35;2.53;;;;;;;19.69;44.00;101710.47;3587119;40;20040;-73
2021/07/09 00:54:40;;;;;;;4.28;1.95;;;;;;;19.68;44.46;101708.72;3588598;40;20029;-73
2021/07/09 00:57:09;;;;;;;3.95;2.30;;;;;;;19.67;43.99;101707.03;3577967;40;20312;-73
2021/07/09 00:59:39;;;;;;;3.60;1.98;;;;;;;19.68;43.99;101705.13;3588131;40;20052;-73
2021/07/09 01:02:07;;;;;;;3.63;1.98;;;;;;;19.66;44.00;101709.97;3575893;40;20076;-73
2021/07/09 01:04:36;;;;;;;4.60;2.10;;;;;;;19.65;44.00;101697.13;3578769;40;20060;-73
2021/07/09 01:07:05;;;;;;;4.18;2.17;;;;;;;19.66;44.11;101702.50;3586421;40;20048;-73
2021/07/09 01:09:34;;;;;;;2.90;1.95;;;;;;;19.65;44.42;101698.00;3588180;40;20059;-73
2021/07/09 01:12:03;;;;;;;3.85;2.30;;;;;;;19.68;43.98;101699.56;3586984;40;20052;-73
2021/07/09 01:14:32;;;;;;;3.70;2.20;;;;;;;19.65;43.80;101703.53;3578841;40;20045;-73
2021/07/09 01:17:02;;;;;;;3.67;2.22;;;;;;;19.69;44.50;101701.25;3586552;40;20118;-73
2021/07/09 01:19:31;;;;;;;4.57;2.50;;;;;;;19.68;44.30;101691.22;3588157;40;20079;-74
2021/07/09 01:21:59;;;;;;;3.50;2.33;;;;;;;19.69;44.22;101692.94;3586652;40;20071;-73
2021/07/09 01:24:29;;;;;;;4.68;2.72;;;;;;;19.71;43.95;101693.66;3587402;40;20052;-73
2021/07/09 01:26:57;;;;;;;3.95;2.70;;;;;;;19.69;43.90;101690.16;3586046;40;20130;-73
2021/07/09 01:29:26;;;;;;;4.00;2.60;;;;;;;19.69;44.22;101688.25;3587898;40;20389;-73
2021/07/09 01:31:54;;;;;;;4.05;2.05;;;;;;;19.71;44.14;101685.31;3574660;40;20404;-73
2021/07/09 01:34:23;;;;;;;5.05;2.83;;;;;;;19.71;44.10;101694.50;3587513;40;20060;-73
2021/07/09 01:36:51;;;;;;;5.05;2.55;;;;;;;19.70;44.09;101683.56;3577294;40;20057;-73
2021/07/09 01:39:19;;;;;;;3.83;2.47;;;;;;;19.71;43.63;101685.31;3586769;40;20048;-73
2021/07/09 01:41:49;;;;;;;3.90;2.53;;;;;;;19.74;44.30;101685.84;3587294;40;20081;-73
2021/07/09 01:44:18;;;;;;;3.95;2.55;;;;;;;19.71;43.92;101677.84;3587320;40;20021;-73
2021/07/09 01:46:47;;;;;;;4.13;2.70;;;;;;;19.72;43.80;101675.94;3576172;40;20044;-73
2021/07/09 01:49:15;;;;;;;5.38;2.80;;;;;;;19.72;43.78;101684.28;3577546;40;20071;-73
2021/07/09 01:51:43;;;;;;;4.10;2.50;;;;;;;19.71;43.91;101675.09;3586515;40;20047;-73
2021/07/09 01:54:12;;;;;;;4.38;2.80;;;;;;;19.72;43.68;101671.28;3579979;40;20300;-73
2021/07/09 01:56:41;;;;;;;5.63;2.95;;;;;;;19.72;44.26;101671.28;3587784;40;20047;-73
2021/07/09 01:59:10;;;;;;;3.95;2.50;;;;;;;19.74;44.37;101666.41;3585793;40;20055;-74
2021/07/09 02:01:39;;;;;;;4.18;2.58;;;;;;;19.72;43.90;101670.41;3587001;40;20684;-73
2021/07/09 02:04:07;;;;;;;4.75;2.85;;;;;;;19.71;44.17;101665.88;3587906;40;20044;-73
2021/07/09 02:06:35;;;;;;;4.03;2.53;;;;;;;19.70;43.97;101658.59;3586436;40;20084;-73
2021/07/09 02:09:04;;;;;;;4.47;2.75;;;;;;;19.70;44.26;101666.91;3577688;40;20072;-73
2021/07/09 02:11:33;;;;;;;4.93;2.45;;;;;;;19.68;44.51;101660.69;3586799;40;20043;-73
2021/07/09 02:14:01;;;;;;;3.50;2.47;;;;;;;19.67;44.16;101664.50;3587682;40;20118;-73
2021/07/09 02:16:32;;;;;;;4.20;2.47;;;;;;;19.68;43.81;101657.94;3586486;40;20049;-73
2021/07/09 02:19:00;;;;;;;5.03;2.67;;;;;;;19.65;44.10;101659.13;3578214;40;20144;-73
2021/07/09 02:21:30;;;;;;;4.78;2.90;;;;;;;19.65;44.00;101656.34;3577844;40;20047;-73
2021/07/09 02:23:59;;;;;;;4.70;2.75;;;;;;;19.65;44.48;101659.13;3588680;40;20033;-74
2021/07/09 02:26:28;;;;;;;4.78;2.88;;;;;;;19.64;44.42;101656.50;3585536;40;20044;-73
2021/07/09 02:28:56;;;;;;;5.88;2.92;;;;;;;19.62;44.48;101662.22;3587534;40;20044;-73
2021/07/09 02:31:24;;;;;;;5.47;2.90;;;;;;;19.61;44.13;101660.50;3577308;40;20059;-74
2021/07/09 02:33:54;;;;;;;5.53;3.00;;;;;;;19.63;44.54;101665.88;3570040;40;20393;-75
2021/07/09 02:36:22;;;;;;;5.57;3.45;;;;;;;19.61;44.85;101670.72;3586825;40;20045;-73
2021/07/09 02:38:50;;;;;;;5.40;3.33;;;;;;;19.59;44.78;101670.94;3584829;40;20084;-73
2021/07/09 02:41:19;;;;;;;4.90;2.75;;;;;;;19.59;44.65;101670.06;3587655;40;20052;-73
2021/07/09 02:43:47;;;;;;;4.72;2.90;;;;;;;19.59;44.16;101670.06;3579327;40;20320;-73
2021/07/09 02:46:15;;;;;;;3.78;2.70;;;;;;;19.58;44.23;101671.97;3579071;40;20040;-73
2021/07/09 02:48:43;;;;;;;5.13;3.03;;;;;;;19.59;44.29;101670.06;3587818;40;20052;-73
2021/07/09 02:51:13;;;;;;;4.55;2.95;;;;;;;19.61;44.15;101674.38;3585708;40;20067;-73
2021/07/09 02:53:41;;;;;;;5.97;3.10;;;;;;;19.60;44.73;101674.53;3579636;40;20068;-73
2021/07/09 02:56:09;;;;;;;5.70;2.90;;;;;;;19.59;44.40;101672.84;3586116;40;20040;-73
2021/07/09 02:58:37;;;;;;;4.95;3.05;;;;;;;19.59;44.09;101670.94;3574749;40;20075;-74
2021/07/09 03:01:05;;;;;;;4.55;2.88;;;;;;;19.60;44.28;101678.19;3587155;40;20029;-73
2021/07/09 03:03:34;;;;;;;4.38;2.80;;;;;;;19.60;44.10;101661.53;3586597;40;20535;-73
2021/07/09 03:06:03;;;;;;;4.93;3.00;;;;;;;19.61;44.21;101662.41;3586449;40;20053;-73
2021/07/09 03:08:33;;;;;;;4.95;3.13;;;;;;;19.63;44.48;101663.97;3585912;40;20049;-73
2021/07/09 03:11:01;;;;;;;4.20;2.67;;;;;;;19.61;44.73;101668.81;3577367;40;20459;-73
2021/07/09 03:13:30;;;;;;;4.88;2.60;;;;;;;19.62;44.14;101664.13;3587074;40;20056;-73
2021/07/09 03:15:59;;;;;;;4.85;2.83;;;;;;;19.62;44.84;101659.47;3586602;40;20048;-73
2021/07/09 03:18:28;;;;;;;5.20;3.00;;;;;;;19.62;44.12;101661.38;3577631;40;20056;-73
2021/07/09 03:20:56;;;;;;;4.78;2.85;;;;;;;19.62;44.25;101666.91;3583675;40;20048;-74
2021/07/09 03:23:25;;;;;;;4.45;2.92;;;;;;;19.62;44.56;101659.47;3588407;40;20045;-74
2021/07/09 03:25:57;;;;;;;5.55;3.40;;;;;;;19.62;44.97;101667.78;3584909;40;20044;-73
2021/07/09 03:28:25;;;;;;;4.72;3.15;;;;;;;19.58;44.87;101660.88;3585106;40;20044;-73
2021/07/09 03:30:54;;;;;;;5.65;3.30;;;;;;;19.59;45.08;101665.38;3585592;40;20043;-73
2021/07/09 03:33:22;;;;;;;4.80;2.88;;;;;;;19.58;45.11;101660.88;3577944;40;20059;-73
2021/07/09 03:35:52;;;;;;;5.57;3.05;;;;;;;19.58;44.96;101663.63;3576440;40;20062;-74
2021/07/09 03:38:20;;;;;;;5.82;2.88;;;;;;;19.57;45.19;101650.78;3584888;40;20081;-73
2021/07/09 03:40:49;;;;;;;6.38;3.38;;;;;;;19.57;45.09;101656.34;3586111;40;20068;-73
2021/07/09 03:43:18;;;;;;;5.75;3.22;;;;;;;19.57;45.20;101659.13;3576864;40;20052;-73
2021/07/09 03:45:46;;;;;;;4.57;3.10;;;;;;;19.55;45.19;101659.28;3586966;40;20088;-73
2021/07/09 03:48:15;;;;;;;6.00;3.60;;;;;;;19.55;44.63;101663.97;3579398;40;20052;-73
2021/07/09 03:50:43;;;;;;;4.95;2.92;;;;;;;19.56;44.71;101668.47;3576575;40;20395;-73
2021/07/09 03:53:17;;;;;;;6.38;3.00;;;;;;;19.58;45.21;101674.75;3590608;40;20317;-73
2021/07/09 03:55:45;;;;;;;5.03;3.03;;;;;;;19.55;44.72;101669.53;3578886;40;20040;-73
2021/07/09 03:58:14;;;;;;;6.07;3.45;;;;;;;19.55;44.65;101669.53;3579634;40;20390;-73
2021/07/09 04:00:46;;;;;;;5.53;3.67;;;;;;;19.58;45.21;101671.97;3586598;40;20056;-73
2021/07/09 04:03:14;;;;;;;5.70;3.95;;;;;;;19.57;44.97;101670.22;3586779;40;20052;-73
2021/07/09 04:05:43;;;;;;;5.32;3.92;;;;;;;19.56;45.28;101666.56;3587087;40;20471;-74
2021/07/09 04:08:11;;;;;;;6.00;4.03;;;;;;;19.56;45.20;101674.91;3587937;40;20063;-74
2021/07/09 04:10:39;;;;;;;6.35;3.95;;;;;;;19.56;44.77;101672.13;3583591;40;20063;-74
2021/07/09 04:13:18;;;;;;;5.78;3.85;;;;;;;19.57;44.97;101673.00;3571019;40;20052;-73
2021/07/09 04:16:07;;;;;;;6.38;3.55;;;;;;;19.59;44.90;101665.38;3584082;40;20126;-74
2021/07/09 04:18:55;;;;;;;6.60;4.20;;;;;;;19.57;45.37;101670.22;3582627;40;20048;-74
2021/07/09 04:21:43;;;;;;;8.05;4.78;;;;;;;19.57;44.96;101667.44;3585971;40;20048;-73
2021/07/09 04:24:31;;;;;;;7.32;4.60;;;;;;;19.58;45.42;101671.09;3587759;40;20045;-74
2021/07/09 04:27:19;;;;;;;7.13;4.70;;;;;;;19.57;44.97;101667.44;3585872;40;20048;-74
2021/07/09 04:30:09;;;;;;;8.48;5.30;;;;;;;19.59;45.16;101672.84;3577879;40;20048;-74
2021/07/09 04:32:59;;;;;;;7.82;4.88;;;;;;;19.59;45.11;101672.84;3580806;40;20040;-73
2021/07/09 04:35:47;;;;;;;8.63;5.20;;;;;;;19.57;45.31;101670.22;3579904;40;20041;-74
2021/07/09 04:38:35;;;;;;;8.15;5.65;;;;;;;19.57;45.64;101678.56;3587563;40;20412;-74
2021/07/09 04:41:23;;;;;;;7.88;5.53;;;;;;;19.55;45.71;101673.16;3580154;40;20295;-74
2021/07/09 04:44:11;;;;;;;8.88;6.05;;;;;;;19.55;45.14;101684.25;3578131;40;20315;-73
2021/07/09 04:46:59;;;;;;;9.15;5.65;;;;;;;19.55;45.65;101683.41;3586354;40;20052;-74
2021/07/09 04:49:48;;;;;;;8.90;6.03;;;;;;;19.57;45.82;101686.88;3587638;40;20397;-74
2021/07/09 04:52:36;;;;;;;9.57;5.95;;;;;;;19.54;45.43;101685.31;3582816;40;20040;-73
2021/07/09 04:55:25;;;;;;;8.55;5.60;;;;;;;19.54;45.58;101678.88;3586730;39;20049;-74
2021/07/09 04:58:13;;;;;;;8.93;6.25;;;;;;;19.53;45.72;101682.69;3583789;40;20104;-74
2021/07/09 05:01:01;;;;;;;8.57;5.82;;;;;;;19.52;45.23;101676.28;3587484;40;20081;-73
2021/07/09 05:03:49;;;;;;;10.27;6.68;;;;;;;19.51;45.50;101677.31;3586599;40;20482;-74
2021/07/09 05:06:38;;;;;;;8.45;5.97;;;;;;;19.51;45.71;101685.63;3587158;40;20040;-74
2021/07/09 05:09:26;;;;;;;8.65;6.05;;;;;;;19.48;45.80;101685.09;3586728;40;20051;-73
2021/07/09 05:12:14;;;;;;;10.07;6.47;;;;;;;19.47;45.65;101684.22;3579586;40;20077;-74
2021/07/09 05:15:04;;;;;;;8.50;6.15;;;;;;;19.49;45.34;101700.72;3583057;40;20052;-75
2021/07/09 05:17:32;;;;;;;8.63;5.88;;;;;;;19.47;45.57;101694.44;3588126;40;20055;-75
2021/07/09 05:20:00;;;;;;;10.90;7.25;;;;;;;19.47;45.42;101692.53;3578070;40;20146;-74
2021/07/09 05:22:29;;;;;;;9.25;6.57;;;;;;;19.49;45.59;101692.38;3586737;40;20545;-76
2021/07/09 05:24:58;;;;;;;8.50;5.47;;;;;;;19.47;45.81;101688.91;3584176;40;20059;-78
2021/07/09 05:27:42;;;;;;;9.25;6.78;;;;;;;19.48;46.15;101687.88;3589007;40;20055;-78
2021/07/09 05:30:17;;;;;;;8.43;6.57;;;;;;;19.48;45.60;101688.75;3580142;40;20085;-78
2021/07/09 05:33:05;;;;;;;8.18;5.78;;;;;;;19.48;45.47;101690.63;3586928;40;20063;-78
2021/07/09 05:35:54;;;;;;;8.82;6.50;;;;;;;19.50;46.17;101694.13;3560752;40;20052;-78
2021/07/09 05:38:37;;;;;;;8.73;5.95;;;;;;;19.53;45.81;101694.66;3585393;40;20033;-79
2021/07/09 05:41:09;;;;;;;10.95;7.20;;;;;;;19.52;46.27;101690.16;3588350;40;20114;-79
2021/07/09 05:43:39;;;;;;;10.35;7.85;;;;;;;19.54;46.25;101695.53;3578731;40;20061;-78
2021/07/09 05:46:07;;;;;;;9.30;6.95;;;;;;;19.57;45.74;101692.44;3567851;40;20071;-78
2021/07/09 05:48:36;;;;;;;10.98;7.57;;;;;;;19.57;46.00;101689.66;3573564;40;20041;-77
2021/07/09 05:51:04;;;;;;;11.20;7.60;;;;;;;19.59;45.85;101695.91;3587422;40;20036;-78
2021/07/09 05:53:34;;;;;;;10.32;6.75;;;;;;;19.63;46.40;101704.75;3578639;40;20068;-78
2021/07/09 05:56:03;;;;;;;10.25;6.72;;;;;;;19.62;46.25;101698.31;3584416;40;20125;-78
2021/07/09 05:58:32;;;;;;;9.57;6.68;;;;;;;19.64;46.08;101699.03;3567985;40;20114;-78
2021/07/09 06:01:00;;;;;;;9.27;7.22;;;;;;;19.66;45.71;101710.81;3577712;40;20182;-78
2021/07/09 06:03:29;;;;;;;8.65;6.07;;;;;;;19.67;45.85;101714.47;3589906;40;20091;-80
2021/07/09 06:05:57;;;;;;;9.50;6.65;;;;;;;19.68;45.60;101711.50;3581929;40;20044;-77
2021/07/09 06:08:26;;;;;;;7.65;5.80;;;;;;;19.68;45.87;101714.28;3577811;40;20048;-77
2021/07/09 06:10:56;;;;;;;9.40;7.15;;;;;;;19.71;45.68;101718.63;3587553;40;20033;-80
2021/07/09 06:13:24;;;;;;;9.80;7.40;;;;;;;19.71;45.89;101713.94;3571271;40;20037;-82
2021/07/09 06:15:55;;;;;;;12.25;8.00;;;;;;;19.72;46.37;101721.25;3562546;40;20044;-78
2021/07/09 06:18:23;;;;;;;9.60;6.95;;;;;;;19.74;45.73;101713.63;3578125;40;20351;-77
2021/07/09 06:20:51;;;;;;;10.70;7.47;;;;;;;19.75;46.11;101715.34;3577852;40;20044;-77
2021/07/09 06:23:19;;;;;;;10.57;7.78;;;;;;;19.78;46.14;101719.66;3586352;40;20041;-78
2021/07/09 06:25:48;;;;;;;12.43;8.73;;;;;;;19.79;46.16;101724.19;3586886;40;20080;-77
2021/07/09 06:28:17;;;;;;;10.55;7.15;;;;;;;19.82;45.89;101721.94;3581596;40;20057;-77
2021/07/09 06:30:45;;;;;;;12.18;7.70;;;;;;;19.82;46.07;101733.06;3584227;40;20039;-76
2021/07/09 06:33:14;;;;;;;14.23;10.20;;;;;;;19.83;46.14;101723.69;3578461;40;20052;-78
2021/07/09 06:35:42;;;;;;;11.55;9.90;;;;;;;19.85;45.92;101729.03;3577326;40;20048;-77
2021/07/09 06:38:13;;;;;;;11.63;9.40;;;;;;;19.85;46.51;101723.50;3577753;40;20053;-76
2021/07/09 06:40:45;;;;;;;15.00;10.88;;;;;;;19.86;45.95;101731.66;3585074;40;20040;-76
2021/07/09 06:43:15;;;;;;;14.25;10.13;;;;;;;19.86;46.26;101728.88;3586490;40;20063;-78
2021/07/09 06:45:44;;;;;;;14.63;10.65;;;;;;;19.92;46.49;101738.44;3585299;40;21189;-79
2021/07/09 06:48:13;;;;;;;11.93;9.02;;;;;;;19.92;46.43;101732.91;3588132;40;20060;-77
2021/07/09 06:50:42;;;;;;;14.23;10.40;;;;;;;19.93;46.50;101729.91;3576098;40;20037;-77
2021/07/09 06:53:10;;;;;;;15.98;11.77;;;;;;;19.94;46.17;101745.53;3577891;40;20060;-77
2021/07/09 06:55:38;;;;;;;16.75;11.63;;;;;;;19.97;46.62;101741.56;3575055;40;20040;-76
2021/07/09 06:58:07;;;;;;;14.05;10.98;;;;;;;19.99;46.55;101745.03;3581262;40;20032;-79
2021/07/09 07:00:37;;;;;;;14.27;10.20;;;;;;;20.00;46.73;101741.22;3570040;40;20099;-77
2021/07/09 07:03:07;;;;;;;13.77;10.35;;;;;;;20.04;46.23;101739.81;3587775;40;20056;-79
2021/07/09 07:05:36;;;;;;;11.15;7.88;;;;;;;20.05;46.21;101744.34;3586504;40;20084;-77
2021/07/09 07:08:16;;;;;;;11.35;8.73;;;;;;;20.11;46.49;101753.88;3576426;40;20059;-78
2021/07/09 07:10:44;;;;;;;12.63;8.95;;;;;;;20.11;46.39;101756.66;3575551;40;20039;-78
2021/07/09 07:13:14;;;;;;;14.35;10.25;;;;;;;20.15;46.27;101746.97;3578182;40;20386;-78
2021/07/09 07:15:43;;;;;;;11.55;8.85;;;;;;;20.18;46.53;101749.38;3587386;40;20377;-77
2021/07/09 07:18:13;;;;;;;11.00;8.45;;;;;;;20.23;45.92;101749.75;3591225;40;20044;-75
2021/07/09 07:20:43;;;;;;;12.80;9.60;;;;;;;20.27;46.06;101751.13;3582347;40;20286;-77
2021/07/09 07:23:15;;;;;;;12.85;10.18;;;;;;;20.31;46.26;101758.09;3580093;40;20057;-78
2021/07/09 07:25:44;;;;;;;15.32;10.25;;;;;;;20.32;46.10;101762.59;3586046;40;20395;-76
2021/07/09 07:28:14;;;;;;;12.77;10.07;;;;;;;20.37;46.28;101762.94;3588494;40;20092;-75
2021/07/09 07:31:03;;;;;;;12.35;9.55;;;;;;;20.40;46.34;101765.38;3586693;40;20052;-79
2021/07/09 07:33:33;;;;;;;13.65;10.00;;;;;;;20.45;46.12;101762.94;3588664;40;20044;-77
2021/07/09 07:36:17;;;;;;;13.82;10.18;;;;;;;20.47;46.24;101759.97;3578269;40;20044;-77
2021/07/09 07:38:47;;;;;;;15.02;9.93;;;;;;;20.51;45.64;101758.56;3587892;40;20174;-78
2021/07/09 07:41:16;;;;;;;15.95;10.30;;;;;;;20.53;45.74;101757.38;3589571;40;20578;-80
2021/07/09 07:43:45;;;;;;;13.18;9.73;;;;;;;20.55;45.85;101760.84;3590715;40;20313;-80
2021/07/09 07:46:15;;;;;;;14.43;9.68;;;;;;;20.59;45.99;101759.44;3580709;40;20044;-83
2021/07/09 07:48:45;;;;;;;11.98;9.55;;;;;;;20.60;45.52;101763.94;3587101;40;21069;-83
2021/07/09 07:51:14;;;;;;;13.93;8.98;;;;;;;20.63;45.75;101755.25;3580960;40;20048;-79
2021/07/09 07:53:42;;;;;;;12.45;9.30;;;;;;;20.65;45.95;101758.75;3581225;40;20024;-82
2021/07/09 07:56:11;;;;;;;11.88;9.40;;;;;;;20.68;45.73;101765.84;3585918;40;20080;-79
2021/07/09 07:58:39;;;;;;;13.63;10.48;;;;;;;20.72;45.44;101760.81;3590179;40;20032;-79
2021/07/09 08:01:07;;;;;;;12.73;9.07;;;;;;;20.74;45.85;101762.38;3586236;40;20040;-79
2021/07/09 08:03:38;;;;;;;14.27;9.68;;;;;;;20.79;45.89;101759.06;3581220;40;20068;-83
2021/07/09 08:06:09;;;;;;;13.77;9.57;;;;;;;20.83;45.69;101760.44;3572996;40;20085;-83
2021/07/09 08:08:38;;;;;;;14.98;11.20;;;;;;;20.85;45.93;101759.19;3581290;40;20045;-82
2021/07/09 08:11:07;;;;;;;13.18;9.73;;;;;;;20.88;45.75;101760.75;3586263;39;20293;-81
2021/07/09 08:13:35;;;;;;;13.15;9.65;;;;;;;20.93;45.87;101753.66;3589495;40;20052;-80
2021/07/09 08:16:04;;;;;;;15.75;10.32;;;;;;;20.99;45.30;101760.44;3589991;40;20065;-81
2021/07/09 08:18:34;;;;;;;12.35;8.88;;;;;;;21.03;45.68;101753.44;3577383;40;20084;-77
2021/07/09 08:21:02;;;;;;;13.02;9.20;;;;;;;21.08;45.41;101748.19;3579093;40;20045;-77
2021/07/09 08:23:33;;;;;;;11.90;9.18;;;;;;;21.14;45.02;101753.06;3580384;40;20044;-78
2021/07/09 08:26:01;;;;;;;12.20;9.05;;;;;;;21.15;45.22;101752.00;3577280;40;20040;-76
2021/07/09 08:28:29;;;;;;;10.23;8.32;;;;;;;21.19;45.41;101746.94;3592822;39;20060;-76
2021/07/09 08:30:58;;;;;;;10.73;8.27;;;;;;;21.22;44.84;101741.88;3586805;40;20047;-75
2021/07/09 08:33:26;;;;;;;11.30;8.50;;;;;;;21.29;44.80;101750.38;3588504;40;20052;-77
2021/07/09 08:35:55;;;;;;;13.75;10.30;;;;;;;21.32;44.56;101745.31;3577884;40;20134;-77
2021/07/09 08:38:23;;;;;;;11.40;8.60;;;;;;;21.36;44.68;101743.03;3588181;40;20313;-80
2021/07/09 08:40:53;;;;;;;11.15;8.75;;;;;;;21.42;44.93;101748.72;3577989;40;20056;-80
2021/07/09 08:43:32;;;;;;;11.85;8.98;;;;;;;21.46;44.72;101743.69;3588230;40;20052;-82
2021/07/09 08:46:02;;;;;;;10.38;7.50;;;;;;;21.50;44.86;101742.25;3582740;40;20044;-80
2021/07/09 08:48:36;;;;;;;10.75;7.28;;;;;;;21.58;44.04;101735.78;3577226;40;20044;-77
2021/07/09 08:51:33;;;;;;;9.93;7.45;;;;;;;21.58;43.88;101730.22;3588646;40;20045;-76
2021/07/09 08:54:01;;;;;;;8.57;6.65;;;;;;;21.65;44.02;101734.03;3576498;40;20053;-78
2021/07/09 08:56:31;;;;;;;8.85;6.70;;;;;;;21.72;44.11;101738.69;3586932;40;20044;-82
2021/07/09 08:58:59;;;;;;;9.07;6.72;;;;;;;21.74;43.62;101735.69;3594968;40;20117;-78
2021/07/09 09:01:27;;;;;;;9.30;6.43;;;;;;;21.78;43.37;101737.94;3580420;40;20049;-82
2021/07/09 09:04:05;;;;;;;8.07;5.65;;;;;;;21.86;42.77;101737.00;3591521;40;20029;-85
2021/07/09 09:06:33;;;;;;;7.68;5.50;;;;;;;21.87;42.95;101729.50;3624645;22;20503;-73
2021/07/09 09:09:14;;;;;;;6.75;5.60;;;;;;;21.90;42.09;101730.03;3598386;39;20351;-74
2021/07/09 09:12:09;;;;;;;6.32;4.97;;;;;;;21.92;42.29;101733.47;3602264;39;20079;-72
2021/07/09 09:14:39;;;;;;;6.97;4.75;;;;;;;21.93;42.60;101732.41;3591144;40;20055;-72
2021/07/09 09:17:32;;;;;;;8.13;5.10;;;;;;;21.93;42.33;101737.97;3589606;40;20775;-72
2021/07/09 09:20:21;;;;;;;6.90;5.10;;;;;;;21.93;42.50;101739.91;3589101;39;20056;-74
2021/07/09 09:23:01;;;;;;;7.07;4.85;;;;;;;21.97;42.39;101731.00;3589399;40;20064;-72
2021/07/09 09:25:32;;;;;;;7.15;5.00;;;;;;;21.97;42.29;101732.91;3591190;39;20059;-71
2021/07/09 09:28:06;;;;;;;7.85;5.75;;;;;;;21.98;42.10;101729.97;3590143;40;20052;-73
2021/07/09 09:30:37;;;;;;;7.88;5.60;;;;;;;21.96;42.48;101729.25;3589871;39;20044;-72
2021/07/09 09:33:09;;;;;;;9.68;5.35;;;;;;;21.98;42.12;101724.38;3590885;40;20387;-73
2021/07/09 09:35:40;;;;;;;7.72;5.22;;;;;;;21.96;42.22;101726.47;3591751;40;20323;-72
2021/07/09 09:38:11;;;;;;;7.05;5.28;;;;;;;21.95;42.26;101721.97;3589295;40;20060;-72
2021/07/09 09:40:43;;;;;;;7.50;5.65;;;;;;;21.96;42.35;101726.47;3589875;40;20046;-72
2021/07/09 09:43:14;;;;;;;8.45;5.57;;;;;;;21.99;42.39;101719.66;3584898;40;20049;-73
2021/07/09 09:45:44;;;;;;;7.77;5.97;;;;;;;21.97;42.39;101728.22;3593950;39;20040;-72
2021/07/09 09:48:14;;;;;;;8.32;5.38;;;;;;;22.02;42.50;101720.16;3602018;40;20580;-78
2021/07/09 09:50:44;;;;;;;7.25;5.40;;;;;;;22.06;42.68;101723.44;3600284;39;20048;-74
2021/07/09 09:53:13;;;;;;;9.43;6.30;;;;;;;22.08;42.11;101715.75;3601391;39;20059;-74
2021/07/09 09:55:41;;;;;;;7.00;5.10;;;;;;;22.13;42.87;101707.72;3598799;39;20047;-74
2021/07/09 09:58:16;;;;;;;7.38;5.25;;;;;;;22.18;43.04;101717.22;3601191;39;20358;-72
2021/07/09 10:00:51;;;;;;;7.55;5.35;;;;;;;22.22;42.47;101711.31;3600447;39;20051;-75
2021/07/09 10:03:21;;;;;;;6.43;4.57;;;;;;;22.28;42.45;101713.34;3590554;40;20307;-74
2021/07/09 10:05:52;;;;;;;7.82;5.50;;;;;;;22.36;42.09;101714.13;3599605;39;20058;-75
2021/07/09 10:08:25;;;;;;;9.07;5.23;;;;;;;22.40;42.47;101711.81;3600219;39;20048;-74
2021/07/09 10:10:53;;;;;;;7.18;5.00;;;;;;;22.46;42.59;101716.66;3599360;39;21388;-72
2021/07/09 10:13:25;;;;;;;8.98;5.53;;;;;;;22.53;42.32;101710.13;3600127;39;20463;-75
2021/07/09 10:15:57;;;;;;;8.15;4.72;;;;;;;22.58;42.48;101704.81;3608000;39;20051;-75
2021/07/09 10:18:26;;;;;;;6.47;4.50;;;;;;;22.67;42.43;101713.97;3601716;40;20351;-75
2021/07/09 10:20:55;;;;;;;7.13;4.88;;;;;;;22.73;42.13;101709.53;3600299;39;20074;-75
2021/07/09 10:23:23;;;;;;;7.10;4.72;;;;;;;22.78;41.94;101712.63;3620334;22;20287;-70
2021/07/09 10:25:53;;;;;;;6.03;4.07;;;;;;;22.83;42.00;101718.47;3599449;40;20411;-70
2021/07/09 10:28:24;;;;;;;6.60;4.13;;;;;;;22.86;41.48;101718.16;3599250;40;20036;-70
2021/07/09 10:30:56;;;;;;;6.90;4.80;;;;;;;22.87;41.41;101708.72;3599086;40;20059;-69
2021/07/09 10:33:31;;;;;;;5.57;4.53;;;;;;;22.90;40.45;101716.69;3600126;40;20043;-70
2021/07/09 10:36:00;;;;;;;5.97;4.40;;;;;;;22.91;40.81;101712.84;3599172;40;20317;-70
2021/07/09 10:38:54;;;;;;;6.38;4.10;;;;;;;22.93;40.52;101705.16;3599416;40;20291;-70
2021/07/09 10:41:24;;;;;;;6.05;4.20;;;;;;;22.90;40.81;101702.72;3606691;39;20032;-70
2021/07/09 10:44:14;;;;;;;6.28;3.90;;;;;;;22.89;40.05;101707.44;3600442;40;20156;-70
2021/07/09 10:46:43;;;;;;;6.10;3.90;;;;;;;22.87;40.50;101701.22;3599724;40;20052;-69
2021/07/09 10:49:12;;;;;;;6.88;3.70;;;;;;;22.90;39.89;101708.31;3600102;40;20043;-70
2021/07/09 10:51:49;;;;;;;5.97;4.03;;;;;;;22.92;39.54;101709.00;3597619;40;20063;-69
2021/07/09 10:54:27;;;;;;;5.47;3.67;;;;;;;22.91;39.42;101705.34;3601193;39;20029;-70
2021/07/09 10:57:18;;;;;;;4.95;3.28;;;;;;;22.86;39.50;101710.66;3591011;40;20395;-70
2021/07/09 11:00:19;;;;;;;5.28;3.72;;;;;;;22.86;39.80;101710.66;3601340;40;20032;-70
2021/07/09 11:03:02;;;;;;;6.45;3.65;;;;;;;22.86;39.86;101707.84;3601268;40;20049;-70
2021/07/09 11:05:53;;;;;;;7.00;3.60;;;;;;;22.87;39.57;101703.13;3600315;40;20048;-70
2021/07/09 11:09:01;;;;;;;4.53;3.22;;;;;;;22.87;39.44;101708.72;3591706;40;20059;-70
2021/07/09 11:11:37;;;;;;;4.50;3.10;;;;;;;22.89;39.46;101713.03;3600757;40;20050;-69
2021/07/09 11:14:12;;;;;;;4.78;3.65;;;;;;;22.92;39.51;101706.22;3591659;40;20028;-70
2021/07/09 11:16:47;;;;;;;6.05;3.22;;;;;;;22.96;39.52;101709.50;3600002;40;20040;-70
2021/07/09 11:19:29;;;;;;;4.82;3.13;;;;;;;22.99;38.87;101696.00;3600734;40;20401;-70
2021/07/09 11:22:06;;;;;;;;;;;;;;;22.69;40.11;101702.63;3592332;40;20060;-70
2021/07/09 11:24:49;;;;;;;3.67;2.72;;;;;;;23.02;38.57;101691.97;3601262;40;20295;-70
2021/07/09 11:27:25;;;;;;;4.10;2.92;;;;;;;23.04;38.84;101693.50;3600894;40;20434;-70
2021/07/09 11:29:57;;;;;;;4.55;3.03;;;;;;;23.07;38.88;101693.09;3555319;40;20114;-69
2021/07/09 11:32:32;;;;;;;4.43;2.80;;;;;;;23.10;38.54;101695.50;3590673;40;20056;-69
2021/07/09 11:35:02;;;;;;;4.05;3.10;;;;;;;23.12;38.15;101687.81;3585264;40;20384;-70
2021/07/09 11:37:32;;;;;;;4.75;3.47;;;;;;;23.15;38.39;101693.00;3590744;40;20040;-70
2021/07/09 11:40:06;;;;;;;5.00;3.45;;;;;;;23.19;38.03;101690.69;3581182;40;20117;-70
2021/07/09 11:42:36;;;;;;;4.97;3.42;;;;;;;23.23;38.25;101686.41;3591331;40;20036;-70
2021/07/09 11:45:07;;;;;;;4.15;3.00;;;;;;;23.28;37.81;101690.38;3600414;39;20036;-70
2021/07/09 11:47:37;;;;;;;4.60;3.40;;;;;;;23.30;38.13;101679.03;3600666;39;20044;-69